createdAt,value
2023-04-16T00:02:06.236Z,97470.44
2023-04-16T00:04:34.753Z,97470.44
2023-04-16T00:07:03.293Z,97470.44
2023-04-16T00:09:31.681Z,97469.63
2023-04-16T00:12:01.762Z,97466.06
2023-04-16T00:14:30.536Z,97474.31
2023-04-16T00:16:58.940Z,97469.63
2023-04-16T00:19:27.395Z,97473.50
2023-04-16T00:21:55.908Z,97467.19
2023-04-16T00:24:24.250Z,97476.25
2023-04-16T00:26:52.719Z,97472.69
2023-04-16T00:29:22.991Z,97472.69
2023-04-16T00:31:51.398Z,97471.06
2023-04-16T00:34:19.774Z,97476.56
2023-04-16T00:36:48.250Z,97471.88
2023-04-16T00:39:16.702Z,97471.06
2023-04-16T00:41:45.380Z,97470.56
2023-04-16T00:44:13.815Z,97476.56
2023-04-16T00:46:43.919Z,97469.44
2023-04-16T00:49:12.975Z,97464.75
2023-04-16T00:51:41.870Z,97483.22
2023-04-16T00:54:10.313Z,97474.13
2023-04-16T00:56:39.747Z,97470.56
2023-04-16T00:59:08.803Z,97478.81
2023-04-16T01:01:37.423Z,97470.56
2023-04-16T01:04:08.150Z,97474.44
2023-04-16T01:06:36.720Z,97471.69
2023-04-16T01:09:05.148Z,97479.97
2023-04-16T01:11:33.691Z,97477.19
2023-04-16T01:14:02.249Z,97477.19
2023-04-16T01:16:30.870Z,97482.72
2023-04-16T01:18:59.287Z,97482.72
2023-04-16T01:21:29.170Z,97475.56
2023-04-16T01:23:57.578Z,97479.97
2023-04-16T01:26:26.122Z,97481.09
2023-04-16T01:28:54.504Z,97479.97
2023-04-16T01:31:22.969Z,97481.09
2023-04-16T01:34:14.075Z,97481.09
2023-04-16T01:36:43.921Z,97488.53
2023-04-16T01:39:15.501Z,97484.97
2023-04-16T01:41:44.114Z,97493.22
2023-04-16T01:44:12.503Z,97484.97
2023-04-16T01:46:41.120Z,97484.16
2023-04-16T01:49:10.020Z,97487.72
2023-04-16T01:51:38.582Z,97488.84
2023-04-16T01:54:08.397Z,97482.53
2023-04-16T01:56:36.758Z,97487.22
2023-04-16T01:59:05.235Z,97485.59
2023-04-16T02:01:39.626Z,97486.41
2023-04-16T02:04:08.239Z,97499.34
2023-04-16T02:06:36.732Z,97492.72
2023-04-16T02:09:05.388Z,97492.72
2023-04-16T02:11:35.650Z,97491.09
2023-04-16T02:14:04.020Z,97488.34
2023-04-16T02:16:32.489Z,97491.09
2023-04-16T02:19:13.624Z,97494.97
2023-04-16T02:21:43.902Z,97490.28
2023-04-16T02:24:12.608Z,97493.84
2023-04-16T02:26:42.388Z,97489.47
2023-04-16T02:29:16.486Z,97497.72
2023-04-16T02:31:50.148Z,97497.72
2023-04-16T02:34:18.786Z,97494.97
2023-04-16T02:36:47.310Z,97498.84
2023-04-16T02:39:15.711Z,97496.09
2023-04-16T02:41:45.725Z,97499.66
2023-04-16T02:44:14.948Z,97492.53
2023-04-16T02:46:43.420Z,97501.59
2023-04-16T02:49:12.061Z,97501.59
2023-04-16T02:51:40.729Z,97506.28
2023-04-16T02:54:09.153Z,97496.41
2023-04-16T02:56:37.607Z,97498.03
2023-04-16T02:59:07.488Z,97504.34
2023-04-16T03:01:36.180Z,97502.72
2023-04-16T03:04:04.950Z,97504.66
2023-04-16T03:06:33.405Z,97499.97
2023-04-16T03:09:01.947Z,97498.34
2023-04-16T03:11:30.485Z,97509.38
2023-04-16T03:13:58.953Z,97501.09
2023-04-16T03:16:28.691Z,97499.47
2023-04-16T03:18:57.198Z,97501.91
2023-04-16T03:21:25.901Z,97501.91
2023-04-16T03:23:56.002Z,97512.13
2023-04-16T03:26:24.539Z,97512.13
2023-04-16T03:28:52.935Z,97504.97
2023-04-16T03:31:22.032Z,97510.50
2023-04-16T03:33:51.934Z,97504.97
2023-04-16T03:36:20.892Z,97516.00
2023-04-16T03:38:49.757Z,97511.63
2023-04-16T03:41:18.790Z,97511.13
2023-04-16T03:43:47.315Z,97516.63
2023-04-16T03:46:15.884Z,97520.19
2023-04-16T03:48:44.447Z,97521.00
2023-04-16T03:51:14.761Z,97532.00
2023-04-16T03:53:43.232Z,97520.50
2023-04-16T03:56:11.691Z,97525.19
2023-04-16T03:58:40.177Z,97527.63
2023-04-16T04:01:09.876Z,97523.75
2023-04-16T04:03:39.662Z,97532.00
2023-04-16T04:06:09.154Z,97527.63
2023-04-16T04:08:39.801Z,97532.31
2023-04-16T04:11:08.702Z,97540.25
2023-04-16T04:13:37.641Z,97530.38
2023-04-16T04:16:06.901Z,97538.63
2023-04-16T04:18:35.464Z,97538.63
2023-04-16T04:21:06.795Z,97534.75
2023-04-16T04:23:36.054Z,97539.44
2023-04-16T04:26:07.483Z,97539.44
2023-04-16T04:28:36.630Z,97538.63
2023-04-16T04:31:06.488Z,97544.13
2023-04-16T04:33:34.958Z,97544.13
2023-04-16T04:36:04.094Z,97546.88
2023-04-16T04:38:34.129Z,97549.66
2023-04-16T04:41:02.678Z,97546.88
2023-04-16T04:43:36.609Z,97549.13
2023-04-16T04:46:05.173Z,97552.41
2023-04-16T04:48:34.032Z,97554.34
2023-04-16T04:51:05.296Z,97555.16
2023-04-16T04:53:33.969Z,97561.47
2023-04-16T04:56:12.157Z,97556.78
2023-04-16T04:58:43.099Z,97569.41
2023-04-16T05:01:12.453Z,97563.91
2023-04-16T05:03:41.027Z,97570.22
2023-04-16T05:06:09.677Z,97574.09
2023-04-16T05:08:38.172Z,97573.28
2023-04-16T05:11:06.615Z,97575.72
2023-04-16T05:13:35.048Z,97580.41
2023-04-16T05:16:05.077Z,97582.03
2023-04-16T05:18:33.633Z,97585.63
2023-04-16T05:21:02.169Z,97589.19
2023-04-16T05:23:30.598Z,97586.44
2023-04-16T05:25:59.039Z,97591.94
2023-04-16T05:28:27.383Z,97592.75
2023-04-16T05:30:55.814Z,97593.56
2023-04-16T05:33:25.686Z,97595.50
2023-04-16T05:35:54.175Z,97583.69
2023-04-16T05:38:22.678Z,97603.44
2023-04-16T05:40:51.105Z,97596.31
2023-04-16T05:43:19.531Z,97604.56
2023-04-16T05:45:47.981Z,97603.75
2023-04-16T05:48:16.454Z,97609.25
2023-04-16T05:50:46.258Z,97619.97
2023-04-16T05:53:14.992Z,97607.00
2023-04-16T05:55:43.410Z,97611.69
2023-04-16T05:58:11.770Z,97614.44
2023-04-16T06:00:40.447Z,97614.44
2023-04-16T06:03:09.149Z,97622.72
2023-04-16T06:05:37.749Z,97625.47
2023-04-16T06:08:07.584Z,97625.47
2023-04-16T06:10:36.196Z,97626.28
2023-04-16T06:13:04.664Z,97621.09
2023-04-16T06:15:33.049Z,97630.97
2023-04-16T06:18:01.505Z,97624.66
2023-04-16T06:20:29.977Z,97634.84
2023-04-16T06:22:58.364Z,97627.41
2023-04-16T06:25:28.137Z,97631.78
2023-04-16T06:27:56.486Z,97630.97
2023-04-16T06:30:25.063Z,97630.97
2023-04-16T06:32:54.464Z,97632.91
2023-04-16T06:35:22.971Z,97636.47
2023-04-16T06:37:51.522Z,97639.22
2023-04-16T06:40:20.020Z,97640.34
2023-04-16T06:42:49.905Z,97641.97
2023-04-16T06:45:18.536Z,97648.31
2023-04-16T06:47:48.043Z,97646.66
2023-04-16T06:50:16.644Z,97647.47
2023-04-16T06:52:45.158Z,97647.47
2023-04-16T06:55:13.595Z,97646.66
2023-04-16T06:57:42.059Z,97654.94
2023-04-16T07:00:13.050Z,97653.81
2023-04-16T07:02:41.539Z,97659.31
2023-04-16T07:05:10.279Z,97658.50
2023-04-16T07:07:38.690Z,97655.75
2023-04-16T07:10:08.164Z,97654.63
2023-04-16T07:12:36.683Z,97658.50
2023-04-16T07:15:06.665Z,97658.50
2023-04-16T07:17:36.508Z,97654.94
2023-04-16T07:20:05.602Z,97653.00
2023-04-16T07:22:34.116Z,97658.50
2023-04-16T07:25:02.586Z,97662.38
2023-04-16T07:27:31.161Z,97663.19
2023-04-16T07:29:59.621Z,97667.88
2023-04-16T07:32:28.011Z,97662.38
2023-04-16T07:34:57.884Z,97669.00
2023-04-16T07:37:26.305Z,97665.44
2023-04-16T07:39:57.487Z,97675.31
2023-04-16T07:42:26.014Z,97678.06
2023-04-16T07:44:54.615Z,97679.19
2023-04-16T07:47:26.432Z,97672.56
2023-04-16T07:49:54.858Z,97684.59
2023-04-16T07:52:24.635Z,97688.66
2023-04-16T07:54:53.063Z,97686.91
2023-04-16T07:57:21.547Z,97686.28
2023-04-16T07:59:49.927Z,97694.94
2023-04-16T08:02:18.617Z,97701.47
2023-04-16T08:04:47.400Z,97700.03
2023-04-16T08:07:15.884Z,97698.59
2023-04-16T08:09:52.988Z,97709.00
2023-04-16T08:12:22.031Z,97705.09
2023-04-16T08:14:50.621Z,97710.63
2023-04-16T08:17:19.005Z,97712.25
2023-04-16T08:19:47.493Z,97713.88
2023-04-16T08:22:16.100Z,97719.25
2023-04-16T08:24:44.691Z,97720.59
2023-04-16T08:27:18.496Z,97721.91
2023-04-16T08:29:48.212Z,97716.56
2023-04-16T08:32:16.682Z,97714.94
2023-04-16T08:34:45.234Z,97721.03
2023-04-16T08:37:13.715Z,97724.22
2023-04-16T08:39:42.210Z,97734.66
2023-04-16T08:42:30.302Z,97728.91
2023-04-16T08:45:08.459Z,97734.13
2023-04-16T08:47:37.924Z,97726.00
2023-04-16T08:50:07.483Z,97733.31
2023-04-16T08:52:43.374Z,97739.19
2023-04-16T08:55:14.680Z,97731.59
2023-04-16T08:57:49.456Z,97734.34
2023-04-16T09:00:17.877Z,97742.00
2023-04-16T09:02:46.611Z,97744.63
2023-04-16T09:05:18.112Z,97748.03
2023-04-16T09:07:48.200Z,97742.19
2023-04-16T09:10:16.708Z,97745.94
2023-04-16T09:12:46.721Z,97740.59
2023-04-16T09:15:15.289Z,97746.44
2023-04-16T09:17:43.773Z,97750.19
2023-04-16T09:20:14.079Z,97752.78
2023-04-16T09:22:42.856Z,97763.38
2023-04-16T09:25:11.960Z,97756.72
2023-04-16T09:27:40.708Z,97757.56
2023-04-16T09:30:23.985Z,97760.94
2023-04-16T09:32:54.059Z,97762.22
2023-04-16T09:35:22.787Z,97765.78
2023-04-16T09:37:58.102Z,97774.34
2023-04-16T09:40:27.650Z,97769.59
2023-04-16T09:43:00.455Z,97773.63
2023-04-16T09:45:33.978Z,97773.94
2023-04-16T09:48:06.686Z,97784.16
2023-04-16T09:50:35.267Z,97785.63
2023-04-16T09:53:04.482Z,97783.50
2023-04-16T09:55:33.822Z,97794.84
2023-04-16T09:58:03.043Z,97784.44
2023-04-16T10:00:33.061Z,97788.31
2023-04-16T10:03:06.041Z,97792.84
2023-04-16T10:05:34.540Z,97782.94
2023-04-16T10:08:03.024Z,97787.97
2023-04-16T10:10:31.456Z,97788.59
2023-04-16T10:13:00.126Z,97789.19
2023-04-16T10:15:29.123Z,97791.44
2023-04-16T10:18:00.235Z,97798.59
2023-04-16T10:20:29.163Z,97800.53
2023-04-16T10:22:58.681Z,97795.34
2023-04-16T10:25:28.905Z,97799.22
2023-04-16T10:27:59.500Z,97797.59
2023-04-16T10:30:28.786Z,97807.00
2023-04-16T10:33:00.640Z,97811.50
2023-04-16T10:35:29.185Z,97808.06
2023-04-16T10:37:57.781Z,97806.75
2023-04-16T10:40:28.330Z,97810.13
2023-04-16T10:42:58.039Z,97812.41
2023-04-16T10:45:31.461Z,97812.41
2023-04-16T10:48:06.112Z,97817.28
2023-04-16T10:50:37.832Z,97814.53
2023-04-16T10:53:18.818Z,97810.13
2023-04-16T10:56:12.541Z,97817.59
2023-04-16T10:58:41.073Z,97810.75
2023-04-16T11:01:14.342Z,97814.66
2023-04-16T11:03:46.297Z,97813.66
2023-04-16T11:06:17.400Z,97815.91
2023-04-16T11:08:54.407Z,97814.91
2023-04-16T11:11:23.778Z,97822.66
2023-04-16T11:13:57.312Z,97820.56
2023-04-16T11:16:26.943Z,97816.69
2023-04-16T11:18:57.939Z,97816.22
2023-04-16T11:21:26.808Z,97819.66
2023-04-16T11:23:56.757Z,97823.75
2023-04-16T11:26:26.660Z,97824.25
2023-04-16T11:28:56.603Z,97819.53
2023-04-16T11:31:27.094Z,97824.31
2023-04-16T11:33:59.436Z,97831.31
2023-04-16T11:36:28.071Z,97833.13
2023-04-16T11:39:04.368Z,97834.13
2023-04-16T11:41:32.780Z,97843.13
2023-04-16T11:44:01.287Z,97833.72
2023-04-16T11:46:40.568Z,97838.63
2023-04-16T11:49:10.838Z,97838.00
2023-04-16T11:51:42.768Z,97836.34
2023-04-16T11:54:12.231Z,97838.00
2023-04-16T11:56:47.721Z,97841.25
2023-04-16T11:59:17.751Z,97840.13
2023-04-16T12:01:48.723Z,97847.25
2023-04-16T12:04:20.775Z,97843.69
2023-04-16T12:07:08.091Z,97842.88
2023-04-16T12:09:40.161Z,97843.63
2023-04-16T12:12:28.103Z,97840.47
2023-04-16T12:14:59.536Z,97850.00
2023-04-16T12:17:28.057Z,97851.25
2023-04-16T12:20:01.367Z,97846.38
2023-04-16T12:22:31.343Z,97840.97
2023-04-16T12:25:00.782Z,97854.25
2023-04-16T12:27:43.133Z,97847.13
2023-04-16T12:30:12.432Z,97847.94
2023-04-16T12:32:41.925Z,97846.63
2023-04-16T12:35:11.947Z,97850.19
2023-04-16T12:37:41.177Z,97854.88
2023-04-16T12:40:10.476Z,97847.75
2023-04-16T12:42:38.989Z,97847.25
2023-04-16T12:45:08.161Z,97846.72
2023-04-16T12:47:36.612Z,97846.72
2023-04-16T12:50:05.782Z,97850.63
2023-04-16T12:52:35.658Z,97847.34
2023-04-16T12:55:04.554Z,97846.53
2023-04-16T12:57:33.050Z,97848.47
2023-04-16T13:00:01.568Z,97849.59
2023-04-16T13:02:30.448Z,97851.56
2023-04-16T13:04:59.157Z,97845.72
2023-04-16T13:07:28.183Z,97848.16
2023-04-16T13:09:58.097Z,97851.75
2023-04-16T13:12:27.190Z,97851.25
2023-04-16T13:14:56.166Z,97844.41
2023-04-16T13:17:24.650Z,97845.09
2023-04-16T13:19:53.131Z,97847.75
2023-04-16T13:22:21.670Z,97844.34
2023-04-16T13:24:50.168Z,97848.75
2023-04-16T13:27:20.325Z,97849.88
2023-04-16T13:29:48.741Z,97847.13
2023-04-16T13:32:18.800Z,97851.00
2023-04-16T13:34:47.382Z,97854.88
2023-04-16T13:37:15.917Z,97848.56
2023-04-16T13:39:45.104Z,97857.13
2023-04-16T13:42:13.607Z,97855.50
2023-04-16T13:44:43.436Z,97859.38
2023-04-16T13:47:12.046Z,97856.13
2023-04-16T13:49:40.681Z,97859.19
2023-04-16T13:52:09.190Z,97863.91
2023-04-16T13:54:38.014Z,97859.00
2023-04-16T13:57:06.582Z,97862.88
2023-04-16T13:59:35.001Z,97855.75
2023-04-16T14:02:05.168Z,97858.03
2023-04-16T14:04:33.645Z,97861.09
2023-04-16T14:07:02.241Z,97857.84
2023-04-16T14:09:30.834Z,97857.03
2023-04-16T14:11:59.316Z,97853.75
2023-04-16T14:14:27.786Z,97854.88
2023-04-16T14:16:56.434Z,97850.50
2023-04-16T14:19:26.475Z,97850.81
2023-04-16T14:21:54.892Z,97857.44
2023-04-16T14:24:23.304Z,97858.47
2023-04-16T14:26:51.729Z,97853.44
2023-04-16T14:29:20.327Z,97857.03
2023-04-16T14:31:50.361Z,97854.47
2023-04-16T14:34:18.858Z,97849.75
2023-04-16T14:36:50.282Z,97855.63
2023-04-16T14:39:18.764Z,97861.66
2023-04-16T14:41:47.178Z,97853.69
2023-04-16T14:44:15.608Z,97853.06
2023-04-16T14:46:44.556Z,97859.38
2023-04-16T14:49:14.139Z,97857.13
2023-04-16T14:51:43.333Z,97855.50
2023-04-16T14:54:13.114Z,97853.25
2023-04-16T14:56:41.781Z,97862.03
2023-04-16T14:59:10.547Z,97858.16
2023-04-16T15:01:41.184Z,97855.56
2023-04-16T15:04:09.930Z,97857.22
2023-04-16T15:06:38.611Z,97859.66
2023-04-16T15:09:07.414Z,97868.44
2023-04-16T15:11:37.220Z,97858.53
2023-04-16T15:14:05.680Z,97856.91
2023-04-16T15:16:34.580Z,97860.78
2023-04-16T15:19:07.841Z,97857.53
2023-04-16T15:21:36.471Z,97860.28
2023-04-16T15:24:05.365Z,97861.09
2023-04-16T15:26:33.782Z,97860.34
2023-04-16T15:29:04.215Z,97861.16
2023-04-16T15:31:32.743Z,97857.16
2023-04-16T15:34:01.646Z,97866.44
2023-04-16T15:36:30.119Z,97863.34
2023-04-16T15:38:58.512Z,97861.94
2023-04-16T15:41:30.150Z,97866.03
2023-04-16T15:43:58.654Z,97865.22
2023-04-16T15:46:28.477Z,97873.47
2023-04-16T15:48:57.109Z,97866.34
2023-04-16T15:51:26.632Z,97866.94
2023-04-16T15:53:55.116Z,97868.69
2023-04-16T15:56:23.562Z,97867.69
2023-04-16T15:58:52.079Z,97874.63
2023-04-16T16:01:20.634Z,97870.88
2023-04-16T16:03:50.746Z,97873.44
2023-04-16T16:06:20.845Z,97871.00
2023-04-16T16:08:50.152Z,97874.38
2023-04-16T16:11:18.653Z,97880.81
2023-04-16T16:13:47.230Z,97876.75
2023-04-16T16:16:16.153Z,97877.06
2023-04-16T16:18:44.613Z,97880.44
2023-04-16T16:21:14.506Z,97878.31
2023-04-16T16:23:43.006Z,97884.94
2023-04-16T16:26:11.594Z,97892.75
2023-04-16T16:28:41.022Z,97882.34
2023-04-16T16:31:09.523Z,97884.59
2023-04-16T16:33:40.138Z,97885.22
2023-04-16T16:36:11.185Z,97895.41
2023-04-16T16:38:42.362Z,97891.34
2023-04-16T16:41:10.881Z,97894.41
2023-04-16T16:43:39.373Z,97886.44
2023-04-16T16:46:07.897Z,97895.84
2023-04-16T16:48:36.370Z,97892.56
2023-04-16T16:51:05.468Z,97890.94
2023-04-16T16:53:33.939Z,97894.81
2023-04-16T16:56:03.762Z,97888.00
2023-04-16T16:58:32.244Z,97892.69
2023-04-16T17:01:00.777Z,97896.06
2023-04-16T17:03:29.472Z,97892.78
2023-04-16T17:05:58.017Z,97894.22
2023-04-16T17:08:26.766Z,97897.28
2023-04-16T17:10:55.518Z,97894.03
2023-04-16T17:13:25.790Z,97897.91
2023-04-16T17:15:54.212Z,97892.72
2023-04-16T17:18:22.661Z,97893.00
2023-04-16T17:20:51.279Z,97894.13
2023-04-16T17:23:19.812Z,97899.13
2023-04-16T17:25:48.285Z,97903.00
2023-04-16T17:28:16.868Z,97904.09
2023-04-16T17:30:47.041Z,97909.09
2023-04-16T17:33:17.036Z,97900.34
2023-04-16T17:35:45.483Z,97904.22
2023-04-16T17:38:14.113Z,97904.53
2023-04-16T17:40:42.701Z,97911.97
2023-04-16T17:43:11.173Z,97915.03
2023-04-16T17:45:39.672Z,97915.03
2023-04-16T17:48:09.572Z,97912.28
2023-04-16T17:50:39.662Z,97912.56
2023-04-16T17:53:08.340Z,97918.09
2023-04-16T17:55:36.869Z,97920.34
2023-04-16T17:58:05.350Z,97921.44
2023-04-16T18:00:33.732Z,97920.13
2023-04-16T18:03:02.699Z,97922.16
2023-04-16T18:05:32.890Z,97930.22
2023-04-16T18:08:01.464Z,97922.06
2023-04-16T18:10:31.548Z,97930.94
2023-04-16T18:13:00.112Z,97928.47
2023-04-16T18:15:29.156Z,97924.69
2023-04-16T18:17:57.658Z,97923.88
2023-04-16T18:20:27.128Z,97924.19
2023-04-16T18:22:56.958Z,97931.41
2023-04-16T18:25:33.760Z,97934.19
2023-04-16T18:28:05.080Z,97942.44
2023-04-16T18:30:34.359Z,97944.66
2023-04-16T18:35:34.277Z,97943.34
2023-04-16T18:38:04.052Z,97949.66
2023-04-16T18:40:35.358Z,97951.28
2023-04-16T18:43:03.992Z,97958.44
2023-04-16T18:45:34.328Z,97949.06
2023-04-16T18:48:04.097Z,97957.00
2023-04-16T18:50:32.572Z,97959.97
2023-04-16T18:53:01.105Z,97963.16
2023-04-16T18:55:31.112Z,97963.47
2023-04-16T18:57:59.602Z,97963.38
2023-04-16T19:00:28.061Z,97963.94
2023-04-16T19:02:56.574Z,97962.91
2023-04-16T19:05:25.092Z,97968.72
2023-04-16T19:07:54.254Z,97966.66
2023-04-16T19:10:22.650Z,97964.91
2023-04-16T19:12:52.532Z,97968.66
2023-04-16T19:15:21.018Z,97968.06
2023-04-16T19:17:49.632Z,97971.81
2023-04-16T19:20:18.344Z,97968.75
2023-04-16T19:22:46.905Z,97969.84
2023-04-16T19:25:15.424Z,97979.03
2023-04-16T19:27:43.868Z,97973.69
2023-04-16T19:30:14.745Z,97975.34
2023-04-16T19:32:43.545Z,97982.50
2023-04-16T19:35:12.730Z,97984.47
2023-04-16T19:37:41.406Z,97985.97
2023-04-16T19:40:10.955Z,97978.59
2023-04-16T19:42:40.081Z,97983.66
2023-04-16T19:45:09.324Z,97979.16
2023-04-16T19:47:39.371Z,97982.09
2023-04-16T19:50:09.092Z,97979.34
2023-04-16T19:52:39.072Z,97980.47
2023-04-16T19:55:08.980Z,97986.50
2023-04-16T19:57:37.757Z,97990.38
2023-04-16T20:00:09.541Z,97981.59
2023-04-16T20:02:39.865Z,97987.13
2023-04-16T20:05:09.316Z,97987.13
2023-04-16T20:07:37.882Z,97985.50
2023-04-16T20:10:07.325Z,97996.53
2023-04-16T20:12:35.768Z,97991.63
2023-04-16T20:15:04.486Z,97987.56
2023-04-16T20:17:32.986Z,97991.44
2023-04-16T20:20:07.322Z,97990.13
2023-04-16T20:22:36.277Z,97990.75
2023-04-16T20:25:05.678Z,97994.13
2023-04-16T20:27:34.756Z,97986.47
2023-04-16T20:30:03.952Z,97987.09
2023-04-16T20:32:32.544Z,97984.97
2023-04-16T20:35:04.231Z,97980.84
2023-04-16T20:37:38.007Z,97987.81
2023-04-16T20:40:08.867Z,97989.25
2023-04-16T20:42:37.463Z,97989.56
2023-04-16T20:45:07.172Z,97985.16
2023-04-16T20:47:35.722Z,97989.66
2023-04-16T20:50:06.439Z,97979.06
2023-04-16T20:52:34.837Z,97977.84
2023-04-16T20:55:03.531Z,97975.19
2023-04-16T20:57:32.199Z,97978.06
2023-04-16T21:00:00.649Z,97984.84
2023-04-16T21:02:29.303Z,97979.13
2023-04-16T21:04:58.076Z,97982.81
2023-04-16T21:07:28.199Z,97983.41
2023-04-16T21:09:56.682Z,97978.81
2023-04-16T21:12:25.031Z,97976.69
2023-04-16T21:14:53.563Z,97985.56
2023-04-16T21:17:22.112Z,97982.59
2023-04-16T21:19:50.724Z,97978.84
2023-04-16T21:22:19.175Z,97986.59
2023-04-16T21:24:49.094Z,97980.88
2023-04-16T21:27:17.551Z,97986.19
2023-04-16T21:29:45.995Z,97979.03
2023-04-16T21:32:14.885Z,97984.00
2023-04-16T21:34:43.261Z,97981.84
2023-04-16T21:37:11.982Z,97977.78
2023-04-16T21:39:40.524Z,97983.59
2023-04-16T21:42:10.414Z,97980.31
2023-04-16T21:44:38.853Z,97982.56
2023-04-16T21:47:07.359Z,97980.13
2023-04-16T21:49:35.853Z,97982.34
2023-04-16T21:52:04.284Z,97979.09
2023-04-16T21:54:32.714Z,97979.09
2023-04-16T21:57:01.410Z,97979.41
2023-04-16T21:59:31.241Z,97986.03
2023-04-16T22:01:59.794Z,97986.03
2023-04-16T22:04:36.940Z,97982.75
2023-04-16T22:07:06.056Z,97980.31
2023-04-16T22:09:34.505Z,97980.59
2023-04-16T22:12:03.268Z,97985.31
2023-04-16T22:14:33.089Z,97985.00
2023-04-16T22:17:01.767Z,97987.22
2023-04-16T22:19:30.570Z,97983.97
2023-04-16T22:21:58.977Z,97980.91
2023-04-16T22:24:28.187Z,97982.34
2023-04-16T22:26:56.943Z,97982.34
2023-04-16T22:29:25.489Z,97979.59
2023-04-16T22:31:55.352Z,97974.38
2023-04-16T22:34:24.971Z,97979.06
2023-04-16T22:36:53.384Z,97979.06
2023-04-16T22:39:21.830Z,97976.63
2023-04-16T22:41:50.265Z,97973.03
2023-04-16T22:44:18.656Z,97969.78
2023-04-16T22:46:47.419Z,97979.66
2023-04-16T22:49:17.170Z,97970.91
2023-04-16T22:51:45.721Z,97971.72
2023-04-16T22:54:14.201Z,97973.66
2023-04-16T22:56:42.687Z,97968.44
2023-04-16T22:59:11.405Z,97969.25
2023-04-16T23:01:42.034Z,97972.31
2023-04-16T23:04:11.045Z,97973.13
2023-04-16T23:06:42.013Z,97963.25
2023-04-16T23:09:10.917Z,97969.88
2023-04-16T23:11:39.491Z,97968.25
2023-04-16T23:14:08.235Z,97966.59
2023-04-16T23:16:36.693Z,97959.97
2023-04-16T23:19:05.059Z,97973.75
2023-04-16T23:21:33.498Z,97965.78
2023-04-16T23:24:03.350Z,97970.47
2023-04-16T23:26:32.761Z,97974.34
2023-04-16T23:29:01.268Z,97973.22
2023-04-16T23:31:29.821Z,97967.22
2023-04-16T23:33:58.277Z,97969.97
2023-04-16T23:36:27.478Z,97971.91
2023-04-16T23:38:55.948Z,97965.56
2023-04-16T23:41:25.758Z,97972.72
2023-04-16T23:43:54.202Z,97971.09
2023-04-16T23:46:22.617Z,97960.06
2023-04-16T23:48:51.126Z,97969.44
2023-04-16T23:51:19.526Z,97970.56
2023-04-16T23:53:48.008Z,97962.31
2023-04-16T23:56:16.639Z,97963.44
2023-04-16T23:58:46.454Z,97965.06
